createdAt,value
2023-03-23T02:00:15.554Z,0.51
2023-03-23T02:04:15.591Z,0.51
2023-03-23T02:08:15.658Z,0.51
2023-03-23T02:12:15.648Z,0.51
2023-03-23T02:16:15.698Z,0.50
2023-03-23T02:20:15.755Z,0.52
2023-03-23T02:24:15.861Z,0.52
2023-03-23T02:28:15.868Z,0.51
2023-03-23T02:32:15.864Z,0.52
2023-03-23T02:36:15.857Z,0.52
2023-03-23T02:40:15.848Z,0.52
2023-03-23T02:44:15.833Z,0.51
2023-03-23T02:48:15.816Z,0.51
2023-03-23T02:52:15.799Z,0.51
2023-03-23T02:56:15.785Z,0.51
2023-03-23T03:00:15.960Z,0.51
2023-03-23T03:04:15.748Z,0.51
2023-03-23T03:08:15.736Z,0.51
2023-03-23T03:12:15.696Z,0.51
2023-03-23T03:16:15.663Z,0.51
2023-03-23T03:20:15.641Z,0.51
2023-03-23T03:24:15.618Z,0.51
2023-03-23T03:28:15.612Z,0.51
2023-03-23T03:32:15.983Z,0.51
2023-03-23T03:36:15.637Z,0.51
2023-03-23T03:40:15.853Z,0.51
2023-03-23T03:44:15.935Z,0.51
2023-03-23T03:48:16.498Z,0.51
2023-03-23T03:52:16.297Z,0.52
2023-03-23T03:56:16.446Z,0.51
2023-03-23T04:00:16.639Z,0.50
2023-03-23T04:04:16.798Z,0.51
2023-03-23T04:08:16.916Z,0.51
2023-03-23T04:12:17.059Z,0.51
2023-03-23T04:16:17.176Z,0.51
2023-03-23T04:20:17.280Z,0.51
2023-03-23T04:24:23.242Z,0.51
2023-03-23T04:28:18.309Z,0.51
2023-03-23T04:32:17.220Z,0.53
2023-03-23T04:36:17.237Z,0.51
2023-03-23T04:40:17.230Z,0.51
2023-03-23T04:44:17.152Z,0.51
2023-03-23T04:48:17.139Z,0.52
2023-03-23T04:52:17.090Z,0.51
2023-03-23T04:56:17.051Z,0.51
2023-03-23T05:00:17.019Z,0.51
2023-03-23T05:04:16.988Z,0.51
2023-03-23T05:08:16.954Z,0.51
2023-03-23T05:12:16.915Z,0.50
2023-03-23T05:16:17.031Z,0.52
2023-03-23T05:20:16.875Z,0.51
2023-03-23T05:24:16.868Z,0.51
2023-03-23T05:28:16.864Z,0.51
2023-03-23T05:32:16.863Z,0.52
2023-03-23T05:36:16.841Z,0.51
2023-03-23T05:40:16.830Z,0.51
2023-03-23T05:44:16.801Z,0.52
2023-03-23T05:48:16.795Z,0.51
2023-03-23T05:52:16.806Z,0.51
2023-03-23T05:56:16.849Z,0.51
2023-03-23T06:00:16.767Z,0.51
2023-03-23T06:04:16.772Z,0.52
2023-03-23T06:08:16.805Z,0.51
2023-03-23T06:12:16.828Z,0.50
2023-03-23T06:16:16.856Z,0.52
2023-03-23T06:20:16.884Z,0.52
2023-03-23T06:24:16.915Z,0.52
2023-03-23T06:28:16.966Z,0.50
2023-03-23T06:32:17.037Z,0.55
2023-03-23T06:36:17.055Z,0.64
2023-03-23T06:40:17.143Z,0.78
2023-03-23T06:44:17.112Z,0.92
2023-03-23T06:48:17.079Z,1.10
2023-03-23T06:52:17.025Z,1.31
2023-03-23T06:56:16.989Z,1.77
2023-03-23T07:00:16.930Z,2.05
2023-03-23T07:04:16.880Z,2.55
2023-03-23T07:08:16.832Z,3.01
2023-03-23T07:12:16.790Z,3.65
2023-03-23T07:16:18.508Z,4.57
2023-03-23T07:20:16.836Z,5.40
2023-03-23T07:24:16.913Z,5.81
2023-03-23T07:28:17.037Z,2.93
2023-03-23T07:32:17.181Z,1.46
2023-03-23T07:36:17.365Z,1.04
2023-03-23T07:40:17.395Z,0.54
2023-03-23T07:44:17.432Z,0.48
2023-03-23T07:48:21.445Z,0.77
2023-03-23T07:52:17.504Z,0.84
2023-03-23T07:56:17.481Z,1.01
2023-03-23T08:00:17.452Z,1.12
2023-03-23T08:04:17.417Z,1.22
2023-03-23T08:08:17.382Z,1.25
2023-03-23T08:12:17.346Z,1.29
2023-03-23T08:16:17.294Z,0.90
2023-03-23T08:20:17.293Z,0.70
2023-03-23T08:24:17.233Z,0.83
2023-03-23T08:28:17.200Z,1.07
2023-03-23T08:32:17.186Z,1.16
2023-03-23T08:36:17.170Z,1.21
2023-03-23T08:40:18.286Z,1.26
2023-03-23T08:44:17.011Z,1.39
2023-03-23T08:48:17.185Z,1.53
2023-03-23T08:52:18.017Z,1.69
2023-03-23T08:56:17.504Z,1.88
2023-03-23T09:00:17.768Z,2.32
2023-03-23T09:04:17.726Z,2.66
2023-03-23T09:08:17.837Z,2.70
2023-03-23T09:12:17.980Z,2.39
2023-03-23T09:16:18.166Z,1.82
2023-03-23T09:20:18.200Z,1.74
2023-03-23T09:24:18.299Z,1.53
2023-03-23T09:28:18.395Z,0.48
2023-03-23T09:32:18.529Z,0.34
2023-03-23T09:36:18.675Z,0.73
2023-03-23T09:40:19.116Z,1.30
2023-03-23T09:44:18.879Z,1.67
2023-03-23T09:48:18.954Z,2.13
2023-03-23T09:52:18.905Z,2.85
2023-03-23T09:56:18.913Z,3.39
2023-03-23T10:00:18.799Z,4.35
2023-03-23T10:04:18.718Z,5.67
2023-03-23T10:08:18.688Z,6.85
2023-03-23T10:12:19.146Z,7.96
2023-03-23T10:16:18.539Z,8.72
2023-03-23T10:20:18.473Z,9.34
2023-03-23T10:24:18.412Z,9.30
2023-03-23T10:28:18.355Z,10.30
2023-03-23T10:32:19.059Z,11.62
2023-03-23T10:36:18.258Z,11.55
2023-03-23T10:40:18.123Z,11.27
2023-03-23T10:44:18.054Z,12.58
2023-03-23T10:48:17.964Z,16.26
2023-03-23T10:52:17.894Z,19.67
2023-03-23T10:56:17.820Z,23.03
2023-03-23T11:00:17.742Z,27.34
2023-03-23T11:04:17.649Z,31.95
2023-03-23T11:08:17.642Z,38.83
2023-03-23T11:12:19.398Z,39.13
2023-03-23T11:16:17.462Z,39.21
2023-03-23T11:20:17.398Z,38.06
2023-03-23T11:24:17.334Z,37.01
2023-03-23T11:28:17.269Z,35.79
2023-03-23T11:32:17.193Z,35.55
2023-03-23T11:36:17.297Z,34.71
2023-03-23T11:40:17.415Z,33.58
2023-03-23T11:44:17.536Z,32.69
2023-03-23T11:48:17.676Z,31.83
2023-03-23T11:52:17.848Z,31.01
2023-03-23T11:56:17.985Z,29.88
2023-03-23T12:00:18.141Z,28.94
2023-03-23T12:04:18.331Z,27.40
2023-03-23T12:12:18.692Z,25.52
2023-03-23T12:16:18.896Z,25.29
2023-03-23T12:20:19.074Z,24.59
2023-03-23T12:24:19.268Z,23.45
2023-03-23T12:28:19.538Z,22.52
2023-03-23T12:32:19.696Z,21.96
2023-03-23T12:36:19.951Z,21.75
2023-03-23T12:40:20.136Z,20.92
2023-03-23T12:44:19.864Z,20.18
2023-03-23T12:48:19.815Z,19.73
2023-03-23T12:52:19.757Z,19.62
2023-03-23T12:56:19.708Z,18.71
2023-03-23T13:00:19.666Z,18.26
2023-03-23T13:04:19.612Z,16.86
2023-03-23T13:08:19.578Z,14.76
2023-03-23T13:12:19.519Z,15.65
2023-03-23T13:16:19.474Z,16.03
2023-03-23T13:20:19.427Z,15.96
2023-03-23T13:24:19.373Z,15.23
2023-03-23T13:28:19.327Z,15.23
2023-03-23T13:32:19.281Z,14.99
2023-03-23T13:36:19.397Z,14.48
2023-03-23T13:40:19.587Z,14.49
2023-03-23T13:44:19.789Z,14.23
2023-03-23T13:48:19.988Z,13.82
2023-03-23T13:52:19.934Z,13.56
2023-03-23T13:56:19.893Z,12.79
2023-03-23T14:00:19.862Z,12.86
2023-03-23T14:04:19.832Z,12.49
2023-03-23T14:08:19.809Z,12.22
2023-03-23T14:12:19.785Z,11.96
2023-03-23T14:16:19.784Z,11.88
2023-03-23T14:20:19.696Z,11.57
2023-03-23T14:24:19.667Z,11.06
2023-03-23T14:28:19.730Z,10.84
2023-03-23T14:32:19.600Z,10.67
2023-03-23T14:36:19.583Z,10.59
2023-03-23T14:40:19.554Z,10.23
2023-03-23T14:44:19.671Z,9.87
2023-03-23T14:48:19.794Z,9.95
2023-03-23T14:52:20.005Z,9.56
2023-03-23T14:56:20.051Z,9.33
2023-03-23T15:00:20.185Z,9.26
2023-03-23T15:04:20.399Z,9.14
2023-03-23T15:08:20.740Z,9.04
2023-03-23T15:12:20.605Z,8.71
2023-03-23T15:16:20.731Z,8.60
2023-03-23T15:20:20.866Z,8.43
2023-03-23T15:24:21.072Z,8.41
2023-03-23T15:28:21.246Z,8.12
2023-03-23T15:32:20.980Z,8.07
2023-03-23T15:36:20.935Z,8.19
2023-03-23T15:40:20.879Z,8.17
2023-03-23T15:44:20.840Z,7.81
2023-03-23T15:48:21.030Z,7.68
2023-03-23T15:52:20.975Z,7.53
2023-03-23T15:56:20.928Z,7.35
2023-03-23T16:00:20.954Z,7.29
2023-03-23T16:04:20.828Z,7.12
2023-03-23T16:08:20.778Z,7.10
2023-03-23T16:12:20.724Z,6.73
2023-03-23T16:16:20.818Z,6.82
2023-03-23T16:20:20.648Z,6.68
2023-03-23T16:24:20.585Z,6.47
2023-03-23T16:28:20.739Z,6.42
2023-03-23T16:32:20.698Z,6.04
2023-03-23T16:36:20.697Z,5.88
2023-03-23T16:40:20.631Z,5.97
2023-03-23T16:44:20.548Z,5.87
2023-03-23T16:48:21.275Z,5.77
2023-03-23T16:52:20.494Z,5.79
2023-03-23T16:56:20.786Z,5.88
2023-03-23T17:00:20.455Z,5.57
2023-03-23T17:04:20.419Z,5.63
2023-03-23T17:08:20.571Z,5.52
2023-03-23T17:12:20.677Z,5.47
2023-03-23T17:16:20.580Z,5.37
2023-03-23T17:20:20.789Z,5.41
2023-03-23T17:24:20.533Z,5.25
2023-03-23T17:28:21.103Z,5.34
2023-03-23T17:32:20.489Z,5.08
2023-03-23T17:36:20.563Z,5.04
2023-03-23T17:40:20.456Z,5.10
2023-03-23T17:44:20.422Z,4.90
2023-03-23T17:48:20.465Z,4.88
2023-03-23T17:52:20.649Z,4.82
2023-03-23T17:56:20.846Z,4.77
2023-03-23T18:00:21.028Z,4.76
2023-03-23T18:04:21.220Z,4.74
2023-03-23T18:08:21.417Z,4.59
2023-03-23T18:12:21.808Z,4.45
2023-03-23T18:16:21.814Z,4.44
2023-03-23T18:20:21.960Z,4.44
2023-03-23T18:24:22.164Z,4.35
2023-03-23T18:28:22.344Z,4.39
2023-03-23T18:32:22.537Z,4.44
2023-03-23T18:36:22.726Z,4.27
2023-03-23T18:40:22.933Z,4.27
2023-03-23T18:44:23.162Z,4.14
2023-03-23T18:48:23.822Z,4.05
2023-03-23T18:52:23.525Z,4.07
2023-03-23T18:56:23.715Z,4.04
2023-03-23T19:00:23.944Z,3.92
2023-03-23T19:04:24.144Z,3.92
2023-03-23T19:08:24.312Z,3.90
2023-03-23T19:12:24.525Z,3.78
2023-03-23T19:16:24.707Z,3.84
2023-03-23T19:20:54.860Z,3.77
2023-03-23T19:24:25.777Z,3.73
2023-03-23T19:32:25.722Z,3.69
2023-03-23T19:36:24.773Z,3.66
2023-03-23T19:40:39.592Z,3.52
2023-03-23T19:44:25.823Z,3.59
2023-03-23T19:48:24.795Z,3.57
2023-03-23T19:52:25.065Z,3.52
2023-03-23T19:56:25.464Z,3.45
2023-03-23T20:00:25.184Z,3.42
2023-03-23T20:04:25.812Z,3.36
2023-03-23T20:08:25.445Z,3.41
2023-03-23T20:12:25.586Z,3.32
2023-03-23T20:16:25.714Z,3.27
2023-03-23T20:20:25.861Z,3.29
2023-03-23T20:24:25.883Z,3.22
2023-03-23T20:28:25.985Z,3.19
2023-03-23T20:32:26.291Z,3.13
2023-03-23T20:36:26.318Z,3.10
2023-03-23T20:40:26.398Z,3.06
2023-03-23T20:44:26.465Z,3.11
2023-03-23T20:48:26.572Z,3.01
2023-03-23T20:52:26.685Z,2.99
2023-03-23T20:56:26.872Z,2.96
2023-03-23T21:00:26.972Z,2.91
2023-03-23T21:04:27.846Z,2.96
2023-03-23T21:08:27.282Z,2.90
2023-03-23T21:12:27.498Z,2.85
2023-03-23T21:16:27.524Z,2.80
2023-03-23T21:20:27.600Z,2.78
2023-03-23T21:24:27.766Z,2.75
2023-03-23T21:28:27.863Z,2.74
2023-03-23T21:32:27.979Z,2.68
2023-03-23T21:36:28.023Z,2.63
2023-03-23T21:40:28.051Z,2.60
2023-03-23T21:44:28.068Z,2.62
2023-03-23T21:48:28.388Z,2.57
2023-03-23T21:52:28.180Z,2.57
2023-03-23T21:56:28.257Z,2.50
2023-03-23T22:00:28.248Z,2.48
2023-03-23T22:04:28.314Z,2.45
2023-03-23T22:08:28.259Z,2.46
2023-03-23T22:12:28.255Z,2.42
2023-03-23T22:16:28.380Z,2.37
2023-03-23T22:20:28.284Z,2.38
2023-03-23T22:24:28.312Z,2.34
2023-03-23T22:28:28.408Z,2.31
2023-03-23T22:32:28.426Z,2.31
2023-03-23T22:36:28.364Z,2.27
2023-03-23T22:40:28.364Z,2.22
2023-03-23T22:44:28.930Z,2.22
2023-03-23T22:48:28.321Z,2.26
2023-03-23T22:52:28.418Z,2.16
2023-03-23T22:56:28.313Z,2.17
2023-03-23T23:00:28.277Z,2.12
2023-03-23T23:04:28.329Z,2.12
2023-03-23T23:08:28.322Z,2.10
2023-03-23T23:12:28.311Z,2.08
2023-03-23T23:16:28.382Z,2.11
2023-03-23T23:20:28.528Z,1.99
2023-03-23T23:24:28.762Z,2.01
2023-03-23T23:28:28.993Z,1.95
2023-03-23T23:32:29.318Z,1.98
2023-03-23T23:36:29.496Z,1.94
2023-03-23T23:40:29.636Z,1.90
2023-03-23T23:44:29.644Z,1.89
2023-03-23T23:48:29.653Z,1.88
2023-03-23T23:52:29.650Z,1.84
2023-03-23T23:56:29.707Z,1.83
